createdAt,value
2018-12-15T00:00:40.054Z,283.57
2018-12-15T00:01:40.044Z,284.37
2018-12-15T00:02:40.033Z,283.83
2018-12-15T00:03:40.037Z,283.45
2018-12-15T00:04:40.006Z,283.52
2018-12-15T00:05:40.004Z,283.52
2018-12-15T00:06:39.989Z,283.87
2018-12-15T00:07:39.982Z,283.46
2018-12-15T00:08:39.976Z,282.82
2018-12-15T00:09:39.977Z,283.33
2018-12-15T00:10:39.944Z,283.50
2018-12-15T00:11:39.930Z,284.12
2018-12-15T00:12:39.920Z,283.63
2018-12-15T00:13:39.923Z,283.74
2018-12-15T00:14:39.984Z,283.61
2018-12-15T00:15:39.889Z,283.38
2018-12-15T00:16:39.881Z,283.45
2018-12-15T00:17:39.871Z,283.40
2018-12-15T00:18:39.876Z,283.83
2018-12-15T00:19:39.859Z,283.88
2018-12-15T00:20:39.849Z,283.65
2018-12-15T00:21:39.827Z,283.50
2018-12-15T00:22:39.829Z,283.71
2018-12-15T00:23:39.821Z,283.83
2018-12-15T00:24:39.808Z,283.27
2018-12-15T00:25:39.791Z,283.39
2018-12-15T00:26:39.782Z,283.12
2018-12-15T00:27:39.768Z,283.79
2018-12-15T00:28:39.759Z,283.79
2018-12-15T00:29:39.739Z,283.35
2018-12-15T00:30:39.740Z,283.33
2018-12-15T00:31:39.750Z,283.51
2018-12-15T00:32:39.740Z,283.40
2018-12-15T00:33:39.722Z,282.97
2018-12-15T00:34:39.691Z,283.34
2018-12-15T00:35:39.691Z,283.23
2018-12-15T00:36:39.679Z,283.79
2018-12-15T00:37:39.682Z,283.39
2018-12-15T00:38:39.776Z,283.63
2018-12-15T00:39:39.636Z,283.37
2018-12-15T00:40:39.638Z,283.18
2018-12-15T00:41:39.630Z,283.30
2018-12-15T00:42:39.609Z,283.40
2018-12-15T00:43:39.598Z,283.84
2018-12-15T00:44:39.632Z,282.97
2018-12-15T00:45:39.570Z,283.63
2018-12-15T00:46:39.570Z,283.50
2018-12-15T00:47:39.564Z,283.31
2018-12-15T00:48:39.558Z,283.85
2018-12-15T00:49:39.596Z,283.86
2018-12-15T00:50:39.559Z,284.17
2018-12-15T00:51:39.511Z,283.83
2018-12-15T00:52:39.515Z,282.95
2018-12-15T00:53:39.503Z,283.73
2018-12-15T00:54:39.475Z,283.36
2018-12-15T00:55:39.480Z,283.24
2018-12-15T00:56:40.087Z,283.32
2018-12-15T00:57:39.447Z,283.53
2018-12-15T00:58:39.451Z,283.33
2018-12-15T00:59:39.440Z,283.46
2018-12-15T01:00:39.417Z,283.32
2018-12-15T01:01:39.437Z,283.57
2018-12-15T01:02:39.455Z,283.64
2018-12-15T01:03:39.379Z,283.49
2018-12-15T01:04:39.374Z,283.38
2018-12-15T01:05:39.364Z,283.10
2018-12-15T01:06:39.359Z,283.46
2018-12-15T01:07:39.473Z,282.94
2018-12-15T01:08:39.352Z,283.29
2018-12-15T01:09:39.325Z,283.25
2018-12-15T01:10:39.319Z,283.22
2018-12-15T01:11:39.299Z,284.35
2018-12-15T01:12:39.299Z,282.97
2018-12-15T01:13:39.289Z,283.07
2018-12-15T01:14:39.273Z,283.93
2018-12-15T01:15:39.260Z,283.75
2018-12-15T01:16:39.255Z,283.51
2018-12-15T01:17:39.236Z,283.77
2018-12-15T01:18:39.254Z,283.90
2018-12-15T01:19:39.228Z,282.88
2018-12-15T01:20:39.210Z,283.33
2018-12-15T01:21:39.191Z,284.03
2018-12-15T01:22:39.193Z,283.88
2018-12-15T01:23:39.172Z,283.83
2018-12-15T01:24:39.163Z,283.31
2018-12-15T01:25:39.159Z,283.67
2018-12-15T01:26:39.159Z,283.62
2018-12-15T01:27:39.126Z,283.30
2018-12-15T01:28:39.122Z,283.75
2018-12-15T01:29:39.121Z,283.28
2018-12-15T01:30:39.094Z,283.63
2018-12-15T01:31:39.104Z,283.14
2018-12-15T01:32:39.077Z,282.97
2018-12-15T01:33:39.065Z,283.36
2018-12-15T01:34:39.057Z,283.30
2018-12-15T01:35:39.052Z,283.38
2018-12-15T01:36:39.043Z,283.40
2018-12-15T01:37:39.022Z,283.18
2018-12-15T01:38:39.023Z,283.60
2018-12-15T01:39:39.001Z,283.22
2018-12-15T01:40:39.000Z,283.47
2018-12-15T01:41:38.979Z,283.18
2018-12-15T01:42:38.967Z,283.53
2018-12-15T01:43:38.979Z,283.50
2018-12-15T01:44:38.961Z,283.50
2018-12-15T01:45:38.943Z,283.98
2018-12-15T01:46:38.946Z,283.44
2018-12-15T01:47:38.916Z,283.52
2018-12-15T01:48:38.910Z,283.89
2018-12-15T01:49:38.930Z,283.62
2018-12-15T01:50:38.883Z,283.50
2018-12-15T01:51:38.912Z,283.93
2018-12-15T01:52:38.875Z,284.16
2018-12-15T01:53:38.850Z,283.38
2018-12-15T01:54:38.839Z,284.04
2018-12-15T01:55:38.826Z,283.83
2018-12-15T01:56:38.815Z,283.45
2018-12-15T01:57:38.820Z,283.32
2018-12-15T01:58:38.822Z,283.21
2018-12-15T01:59:38.785Z,283.51
2018-12-15T02:00:38.780Z,283.30
2018-12-15T02:01:38.799Z,283.01
2018-12-15T02:02:38.753Z,283.48
2018-12-15T02:03:38.766Z,283.66
2018-12-15T02:04:38.748Z,283.25
2018-12-15T02:05:38.736Z,283.76
2018-12-15T02:06:38.718Z,283.21
2018-12-15T02:07:38.749Z,283.97
2018-12-15T02:08:38.713Z,283.86
2018-12-15T02:09:38.709Z,283.52
2018-12-15T02:10:38.672Z,283.73
2018-12-15T02:11:38.666Z,283.50
2018-12-15T02:12:38.650Z,283.59
2018-12-15T02:13:38.646Z,284.19
2018-12-15T02:14:38.634Z,283.88
2018-12-15T02:15:38.619Z,283.82
2018-12-15T02:16:38.600Z,283.10
2018-12-15T02:17:38.606Z,283.42
2018-12-15T02:18:38.677Z,283.98
2018-12-15T02:19:38.605Z,283.57
2018-12-15T02:20:38.575Z,283.72
2018-12-15T02:21:38.564Z,283.81
2018-12-15T02:22:38.548Z,283.26
2018-12-15T02:23:38.548Z,283.44
2018-12-15T02:24:38.539Z,283.62
2018-12-15T02:25:38.507Z,283.33
2018-12-15T02:26:38.496Z,283.52
2018-12-15T02:27:38.506Z,283.66
2018-12-15T02:28:38.485Z,283.66
2018-12-15T02:29:38.499Z,282.94
2018-12-15T02:30:38.459Z,283.39
2018-12-15T02:31:38.444Z,283.78
2018-12-15T02:32:38.435Z,283.64
2018-12-15T02:33:38.426Z,283.90
2018-12-15T02:34:38.417Z,283.52
2018-12-15T02:35:38.397Z,283.73
2018-12-15T02:36:38.393Z,283.19
2018-12-15T02:37:38.385Z,283.43
2018-12-15T02:38:38.377Z,283.67
2018-12-15T02:39:38.362Z,283.04
2018-12-15T02:40:38.362Z,284.38
2018-12-15T02:41:38.377Z,283.28
2018-12-15T02:42:38.329Z,283.59
2018-12-15T02:43:38.325Z,284.48
2018-12-15T02:44:38.321Z,283.48
2018-12-15T02:45:38.293Z,283.52
2018-12-15T02:46:38.293Z,284.04
2018-12-15T02:47:41.824Z,283.40
2018-12-15T02:48:38.261Z,283.13
2018-12-15T02:49:38.256Z,283.57
2018-12-15T02:50:38.255Z,283.76
2018-12-15T02:51:38.230Z,283.69
2018-12-15T02:52:38.232Z,283.24
2018-12-15T02:53:38.219Z,283.95
2018-12-15T02:54:38.201Z,283.44
2018-12-15T02:55:38.187Z,283.98
2018-12-15T02:56:38.178Z,283.42
2018-12-15T02:57:38.165Z,283.31
2018-12-15T02:58:38.204Z,283.47
2018-12-15T02:59:38.160Z,284.14
2018-12-15T03:00:38.151Z,283.10
2018-12-15T03:01:38.160Z,284.15
2018-12-15T03:02:38.162Z,283.67
2018-12-15T03:03:38.108Z,283.76
2018-12-15T03:04:38.095Z,283.51
2018-12-15T03:05:38.090Z,283.54
2018-12-15T03:06:38.075Z,283.13
2018-12-15T03:07:38.085Z,283.81
2018-12-15T03:08:38.056Z,283.39
2018-12-15T03:09:38.040Z,283.49
2018-12-15T03:10:38.031Z,283.71
2018-12-15T03:11:38.016Z,283.39
2018-12-15T03:12:38.007Z,283.64
2018-12-15T03:13:38.007Z,283.54
2018-12-15T03:14:37.994Z,283.83
2018-12-15T03:15:37.974Z,283.92
2018-12-15T03:16:37.972Z,283.33
2018-12-15T03:17:37.950Z,283.44
2018-12-15T03:18:37.946Z,283.32
2018-12-15T03:19:37.933Z,283.60
2018-12-15T03:20:37.926Z,283.68
2018-12-15T03:21:37.916Z,283.54
2018-12-15T03:22:37.949Z,284.04
2018-12-15T03:23:37.897Z,283.52
2018-12-15T03:24:37.879Z,283.17
2018-12-15T03:25:37.866Z,283.36
2018-12-15T03:26:37.861Z,283.11
2018-12-15T03:27:37.841Z,283.36
2018-12-15T03:28:37.840Z,283.32
2018-12-15T03:29:37.829Z,283.24
2018-12-15T03:30:37.831Z,282.82
2018-12-15T03:31:37.819Z,283.15
2018-12-15T03:32:37.793Z,283.76
2018-12-15T03:33:37.825Z,283.53
2018-12-15T03:34:37.816Z,283.00
2018-12-15T03:35:37.765Z,283.65
2018-12-15T03:36:37.761Z,283.76
2018-12-15T03:37:37.740Z,283.76
2018-12-15T03:38:37.741Z,283.31
2018-12-15T03:39:37.741Z,283.33
2018-12-15T03:40:37.719Z,282.89
2018-12-15T03:41:37.695Z,282.96
2018-12-15T03:42:37.710Z,283.67
2018-12-15T03:43:37.684Z,283.38
2018-12-15T03:44:37.675Z,283.42
2018-12-15T03:45:37.673Z,283.56
2018-12-15T03:46:37.670Z,283.58
2018-12-15T03:47:37.639Z,283.24
2018-12-15T03:48:37.630Z,283.42
2018-12-15T03:49:37.626Z,283.32
2018-12-15T03:50:37.600Z,283.69
2018-12-15T03:51:37.605Z,283.67
2018-12-15T03:52:37.590Z,283.58
2018-12-15T03:53:37.574Z,283.73
2018-12-15T03:54:37.562Z,283.54
2018-12-15T03:55:37.550Z,283.52
2018-12-15T03:56:37.551Z,283.85
2018-12-15T03:57:37.534Z,283.58
2018-12-15T03:58:37.537Z,283.43
2018-12-15T03:59:37.515Z,282.83
2018-12-15T04:00:37.500Z,283.43
2018-12-15T04:01:37.484Z,283.52
2018-12-15T04:02:37.482Z,283.01
2018-12-15T04:03:37.466Z,284.34
2018-12-15T04:04:37.457Z,283.51
2018-12-15T04:05:37.453Z,283.83
2018-12-15T04:06:37.447Z,283.11
2018-12-15T04:07:37.426Z,283.58
2018-12-15T04:08:37.412Z,283.31
2018-12-15T04:09:37.403Z,283.58
2018-12-15T04:10:37.399Z,283.45
2018-12-15T04:11:37.400Z,283.32
2018-12-15T04:12:37.366Z,283.63
2018-12-15T04:13:37.362Z,283.26
2018-12-15T04:14:37.350Z,283.74
2018-12-15T04:15:37.338Z,283.99
2018-12-15T04:16:37.350Z,283.55
2018-12-15T04:17:37.319Z,283.49
2018-12-15T04:18:37.343Z,283.43
2018-12-15T04:19:37.297Z,283.34
2018-12-15T04:20:37.294Z,283.26
2018-12-15T04:21:37.276Z,283.16
2018-12-15T04:22:37.290Z,283.62
2018-12-15T04:23:37.251Z,283.11
2018-12-15T04:24:37.242Z,283.97
2018-12-15T04:25:37.239Z,282.71
2018-12-15T04:26:37.227Z,283.76
2018-12-15T04:27:37.254Z,283.56
2018-12-15T04:28:37.221Z,283.33
2018-12-15T04:29:37.186Z,283.46
2018-12-15T04:30:37.179Z,283.56
2018-12-15T04:31:37.162Z,283.97
2018-12-15T04:32:37.149Z,283.19
2018-12-15T04:33:37.145Z,283.53
2018-12-15T04:34:37.132Z,283.03
2018-12-15T04:35:37.118Z,283.30
2018-12-15T04:36:37.115Z,283.48
2018-12-15T04:37:37.131Z,284.05
2018-12-15T04:38:37.120Z,283.85
2018-12-15T04:39:37.116Z,283.47
2018-12-15T04:40:37.077Z,283.73
2018-12-15T04:41:37.069Z,282.97
2018-12-15T04:42:37.066Z,283.30
2018-12-15T04:43:37.078Z,283.00
2018-12-15T04:44:37.033Z,283.68
2018-12-15T04:45:37.039Z,283.05
2018-12-15T04:46:36.999Z,282.91
2018-12-15T04:47:36.993Z,284.43
2018-12-15T04:48:36.986Z,283.30
2018-12-15T04:49:36.977Z,283.36
2018-12-15T04:50:36.968Z,283.42
2018-12-15T04:51:36.969Z,283.70
2018-12-15T04:52:36.948Z,283.14
2018-12-15T04:53:36.945Z,283.09
2018-12-15T04:54:36.923Z,283.16
2018-12-15T04:55:36.917Z,282.80
2018-12-15T04:56:36.903Z,283.50
2018-12-15T04:57:36.891Z,283.63
2018-12-15T04:58:36.870Z,283.94
2018-12-15T04:59:36.864Z,283.42
2018-12-15T05:00:36.851Z,283.29
2018-12-15T05:01:36.867Z,283.79
2018-12-15T05:02:43.624Z,283.19
2018-12-15T05:03:37.818Z,283.68
2018-12-15T05:04:36.815Z,283.44
2018-12-15T05:05:36.803Z,283.43
2018-12-15T05:06:36.782Z,283.69
2018-12-15T05:07:36.775Z,283.51
2018-12-15T05:08:36.779Z,283.83
2018-12-15T05:09:36.758Z,283.75
2018-12-15T05:10:36.751Z,282.38
2018-12-15T05:11:36.758Z,283.37
2018-12-15T05:12:36.726Z,283.77
2018-12-15T05:13:36.723Z,283.19
2018-12-15T05:14:36.712Z,283.49
2018-12-15T05:15:36.691Z,283.16
2018-12-15T05:16:36.688Z,283.55
2018-12-15T05:17:36.685Z,283.70
2018-12-15T05:18:36.672Z,283.56
2018-12-15T05:19:36.673Z,283.96
2018-12-15T05:20:36.638Z,283.37
2018-12-15T05:21:36.623Z,283.83
2018-12-15T05:22:36.631Z,283.62
2018-12-15T05:23:36.614Z,283.14
2018-12-15T05:24:36.602Z,283.04
2018-12-15T05:25:36.588Z,283.26
2018-12-15T05:26:36.573Z,283.61
2018-12-15T05:27:37.173Z,283.67
2018-12-15T05:28:36.559Z,283.49
2018-12-15T05:29:36.549Z,282.47
2018-12-15T05:30:36.543Z,283.62
2018-12-15T05:31:36.531Z,283.46
2018-12-15T05:32:36.520Z,283.44
2018-12-15T05:33:36.498Z,283.12
2018-12-15T05:34:36.491Z,283.27
2018-12-15T05:35:36.488Z,283.19
2018-12-15T05:36:36.483Z,282.76
2018-12-15T05:37:36.486Z,283.30
2018-12-15T05:38:36.456Z,283.55
2018-12-15T05:39:36.441Z,283.52
2018-12-15T05:40:36.435Z,283.37
2018-12-15T05:41:36.418Z,283.77
2018-12-15T05:42:36.415Z,283.60
2018-12-15T05:43:39.695Z,282.82
2018-12-15T05:44:36.387Z,283.77
2018-12-15T05:45:36.375Z,283.05
2018-12-15T05:46:36.379Z,283.52
2018-12-15T05:47:36.351Z,283.14
2018-12-15T05:48:36.350Z,282.92
2018-12-15T05:49:36.333Z,283.64
2018-12-15T05:50:36.318Z,283.39
2018-12-15T05:51:36.313Z,283.04
2018-12-15T05:52:36.303Z,282.66
2018-12-15T05:53:36.300Z,283.06
2018-12-15T05:54:36.319Z,283.20
2018-12-15T05:55:36.271Z,282.77
2018-12-15T05:56:36.250Z,282.85
2018-12-15T05:57:36.261Z,282.37
2018-12-15T05:58:36.241Z,282.62
2018-12-15T05:59:36.235Z,283.05
2018-12-15T06:00:36.225Z,282.77
2018-12-15T06:01:36.202Z,282.82
2018-12-15T06:02:36.193Z,283.24
2018-12-15T06:03:36.187Z,282.89
2018-12-15T06:04:36.182Z,282.77
2018-12-15T06:05:36.159Z,282.84
2018-12-15T06:06:36.156Z,282.83
2018-12-15T06:07:36.683Z,282.68
2018-12-15T06:08:36.136Z,282.84
2018-12-15T06:09:36.123Z,282.38
2018-12-15T06:10:36.114Z,283.66
2018-12-15T06:11:36.109Z,282.73
2018-12-15T06:12:36.102Z,283.26
2018-12-15T06:13:36.077Z,283.06
2018-12-15T06:14:36.064Z,282.70
2018-12-15T06:15:36.056Z,282.38
2018-12-15T06:16:36.053Z,283.06
2018-12-15T06:17:36.042Z,282.48
2018-12-15T06:18:36.028Z,282.46
2018-12-15T06:19:36.017Z,282.51
2018-12-15T06:20:35.998Z,283.14
2018-12-15T06:21:36.006Z,282.76
2018-12-15T06:22:35.989Z,282.67
2018-12-15T06:23:35.981Z,282.12
2018-12-15T06:24:35.959Z,282.52
2018-12-15T06:25:35.949Z,282.19
2018-12-15T06:26:35.992Z,282.68
2018-12-15T06:27:35.936Z,282.08
2018-12-15T06:28:35.913Z,283.02
2018-12-15T06:29:35.916Z,282.86
2018-12-15T06:30:35.902Z,282.10
2018-12-15T06:31:35.881Z,282.11
2018-12-15T06:32:35.898Z,282.11
2018-12-15T06:33:35.873Z,282.31
2018-12-15T06:34:35.868Z,282.83
2018-12-15T06:35:35.858Z,282.33
2018-12-15T06:36:35.849Z,281.91
2018-12-15T06:37:35.823Z,282.08
2018-12-15T06:38:35.818Z,282.59
2018-12-15T06:39:35.818Z,282.70
2018-12-15T06:40:35.797Z,282.59
2018-12-15T06:41:35.798Z,281.86
2018-12-15T06:42:35.780Z,283.02
2018-12-15T06:43:35.780Z,282.60
2018-12-15T06:44:35.745Z,281.77
2018-12-15T06:45:35.763Z,282.27
2018-12-15T06:46:35.731Z,282.52
2018-12-15T06:47:35.721Z,282.62
2018-12-15T06:48:38.291Z,282.33
2018-12-15T06:49:35.701Z,281.83
2018-12-15T06:50:35.685Z,282.75
2018-12-15T06:51:35.687Z,282.58
2018-12-15T06:52:35.667Z,282.25
2018-12-15T06:53:35.665Z,282.13
2018-12-15T06:54:35.642Z,282.84
2018-12-15T06:55:35.635Z,282.51
2018-12-15T06:56:35.628Z,281.74
2018-12-15T06:57:35.614Z,282.10
2018-12-15T06:58:35.617Z,282.27
2018-12-15T06:59:35.593Z,282.04
2018-12-15T07:00:35.602Z,282.50
2018-12-15T07:01:35.578Z,282.53
2018-12-15T07:02:35.562Z,282.25
2018-12-15T07:03:35.548Z,282.13
2018-12-15T07:04:35.545Z,281.84
2018-12-15T07:05:35.531Z,281.37
2018-12-15T07:06:35.523Z,282.18
2018-12-15T07:07:35.504Z,282.61
2018-12-15T07:08:35.506Z,282.55
2018-12-15T07:09:35.491Z,282.17
2018-12-15T07:10:35.472Z,282.26
2018-12-15T07:11:35.471Z,282.53
2018-12-15T07:12:35.447Z,281.89
2018-12-15T07:13:35.446Z,282.15
2018-12-15T07:14:35.437Z,282.11
2018-12-15T07:15:35.475Z,281.37
2018-12-15T07:16:35.418Z,281.80
2018-12-15T07:17:35.419Z,282.50
2018-12-15T07:18:35.387Z,281.94
2018-12-15T07:19:35.371Z,281.94
2018-12-15T07:20:35.378Z,281.49
2018-12-15T07:21:35.353Z,282.25
2018-12-15T07:22:35.373Z,281.83
2018-12-15T07:23:35.419Z,282.57
2018-12-15T07:24:35.330Z,282.45
2018-12-15T07:25:35.320Z,282.05
2018-12-15T07:26:35.308Z,282.12
2018-12-15T07:27:35.289Z,282.18
2018-12-15T07:28:35.287Z,282.17
2018-12-15T07:29:35.269Z,282.03
2018-12-15T07:30:35.265Z,282.45
2018-12-15T07:31:35.273Z,282.29
2018-12-15T07:32:35.267Z,282.08
2018-12-15T07:33:35.231Z,282.08
2018-12-15T07:34:35.218Z,281.91
2018-12-15T07:35:35.201Z,281.79
2018-12-15T07:36:35.743Z,282.71
2018-12-15T07:37:35.189Z,281.80
2018-12-15T07:38:35.194Z,282.53
2018-12-15T07:39:35.173Z,282.24
2018-12-15T07:40:35.169Z,282.21
2018-12-15T07:41:35.158Z,281.99
2018-12-15T07:42:35.156Z,281.94
2018-12-15T07:43:35.131Z,281.44
2018-12-15T07:44:35.122Z,282.05
2018-12-15T07:45:35.102Z,282.01
2018-12-15T07:46:35.101Z,282.06
2018-12-15T07:47:35.078Z,282.79
2018-12-15T07:48:35.066Z,282.56
2018-12-15T07:49:35.071Z,282.18
2018-12-15T07:50:35.044Z,282.28
2018-12-15T07:51:35.038Z,281.91
2018-12-15T07:52:35.030Z,282.52
2018-12-15T07:53:35.045Z,282.17
2018-12-15T07:54:35.018Z,282.10
2018-12-15T07:55:35.020Z,281.89
2018-12-15T07:56:35.029Z,281.94
2018-12-15T07:57:34.970Z,282.10
2018-12-15T07:58:34.966Z,282.09
2018-12-15T07:59:34.948Z,282.30
2018-12-15T08:00:34.950Z,282.75
2018-12-15T08:01:34.934Z,282.30
2018-12-15T08:02:34.967Z,282.25
2018-12-15T08:03:34.918Z,282.05
2018-12-15T08:04:34.925Z,282.00
2018-12-15T08:05:34.880Z,282.37
2018-12-15T08:06:34.882Z,281.90
2018-12-15T08:07:34.897Z,282.50
2018-12-15T08:08:34.845Z,281.98
2018-12-15T08:09:34.861Z,282.20
2018-12-15T08:10:34.836Z,281.97
2018-12-15T08:11:34.819Z,282.90
2018-12-15T08:12:34.818Z,282.74
2018-12-15T08:13:34.791Z,282.25
2018-12-15T08:14:34.787Z,281.63
2018-12-15T08:15:34.784Z,282.02
2018-12-15T08:16:34.767Z,282.13
2018-12-15T08:17:34.756Z,282.21
2018-12-15T08:18:34.749Z,282.02
2018-12-15T08:19:34.751Z,281.95
2018-12-15T08:20:34.727Z,282.48
2018-12-15T08:21:34.739Z,282.13
2018-12-15T08:22:35.302Z,282.04
2018-12-15T08:23:34.697Z,281.72
2018-12-15T08:24:34.684Z,282.44
2018-12-15T08:25:34.695Z,282.17
2018-12-15T08:26:34.694Z,282.04
2018-12-15T08:27:34.667Z,282.48
2018-12-15T08:28:34.635Z,282.46
2018-12-15T08:29:34.663Z,281.80
2018-12-15T08:30:34.652Z,282.39
2018-12-15T08:31:34.612Z,282.32
2018-12-15T08:32:34.602Z,281.97
2018-12-15T08:33:34.587Z,281.77
2018-12-15T08:34:34.653Z,281.90
2018-12-15T08:35:34.579Z,282.16
2018-12-15T08:36:34.561Z,282.72
2018-12-15T08:37:34.547Z,282.14
2018-12-15T08:38:34.548Z,282.30
2018-12-15T08:39:34.529Z,282.56
2018-12-15T08:40:34.519Z,281.97
2018-12-15T08:41:34.512Z,282.08
2018-12-15T08:42:34.497Z,282.14
2018-12-15T08:43:34.489Z,282.29
2018-12-15T08:44:34.486Z,282.21
2018-12-15T08:45:34.457Z,282.34
2018-12-15T08:46:34.456Z,282.15
2018-12-15T08:47:34.437Z,281.93
2018-12-15T08:48:34.423Z,281.49
2018-12-15T08:49:34.414Z,281.76
2018-12-15T08:50:34.416Z,282.65
2018-12-15T08:51:34.405Z,282.40
2018-12-15T08:52:34.406Z,281.86
2018-12-15T08:53:34.422Z,282.00
2018-12-15T08:54:34.368Z,281.65
2018-12-15T08:55:34.360Z,281.94
2018-12-15T08:56:34.343Z,282.05
2018-12-15T08:57:34.349Z,281.49
2018-12-15T08:58:34.338Z,282.59
2018-12-15T08:59:34.332Z,282.22
2018-12-15T09:00:34.305Z,281.78
2018-12-15T09:01:34.296Z,281.76
2018-12-15T09:02:34.279Z,282.36
2018-12-15T09:03:34.286Z,282.06
2018-12-15T09:04:34.258Z,282.06
2018-12-15T09:05:34.279Z,282.70
2018-12-15T09:06:34.246Z,282.52
2018-12-15T09:07:34.219Z,282.33
2018-12-15T09:08:34.271Z,282.24
2018-12-15T09:09:34.222Z,282.06
2018-12-15T09:10:34.197Z,281.79
2018-12-15T09:11:34.195Z,281.62
2018-12-15T09:12:34.250Z,282.09
2018-12-15T09:13:34.160Z,282.18
2018-12-15T09:14:34.152Z,281.91
2018-12-15T09:15:34.153Z,281.42
2018-12-15T09:16:34.136Z,282.03
2018-12-15T09:17:34.127Z,282.30
2018-12-15T09:18:34.233Z,281.42
2018-12-15T09:19:34.114Z,282.79
2018-12-15T09:20:34.090Z,282.23
2018-12-15T09:21:34.108Z,281.85
2018-12-15T09:22:34.100Z,281.78
2018-12-15T09:23:34.058Z,282.32
2018-12-15T09:24:34.100Z,282.65
2018-12-15T09:25:34.039Z,282.07
2018-12-15T09:26:34.050Z,281.73
2018-12-15T09:27:34.025Z,282.24
2018-12-15T09:28:34.020Z,281.20
2018-12-15T09:29:34.002Z,282.09
2018-12-15T09:30:33.983Z,281.01
2018-12-15T09:31:33.983Z,282.28
2018-12-15T09:32:33.962Z,282.34
2018-12-15T09:33:33.951Z,281.46
2018-12-15T09:34:33.957Z,281.94
2018-12-15T09:35:33.977Z,281.61
2018-12-15T09:36:33.930Z,282.12
2018-12-15T09:37:33.947Z,282.42
2018-12-15T09:38:33.902Z,282.15
2018-12-15T09:39:33.903Z,281.63
2018-12-15T09:40:33.876Z,282.33
2018-12-15T09:41:33.869Z,281.90
2018-12-15T09:42:33.872Z,281.69
2018-12-15T09:43:33.858Z,282.28
2018-12-15T09:44:33.848Z,282.65
2018-12-15T09:45:33.865Z,281.42
2018-12-15T09:46:33.839Z,282.38
2018-12-15T09:47:33.844Z,281.73
2018-12-15T09:48:33.793Z,281.63
2018-12-15T09:49:33.851Z,281.94
2018-12-15T09:50:33.775Z,282.61
2018-12-15T09:51:33.771Z,282.43
2018-12-15T09:52:33.791Z,282.35
2018-12-15T09:53:33.737Z,281.83
2018-12-15T09:54:33.737Z,281.83
2018-12-15T09:55:33.714Z,281.63
2018-12-15T09:56:33.720Z,282.01
2018-12-15T09:57:33.704Z,281.60
2018-12-15T09:58:33.718Z,282.04
2018-12-15T09:59:33.677Z,282.26
2018-12-15T10:00:33.673Z,282.47
2018-12-15T10:01:33.661Z,281.70
2018-12-15T10:02:33.644Z,281.89
2018-12-15T10:03:33.638Z,281.44
2018-12-15T10:04:33.627Z,281.48
2018-12-15T10:05:33.615Z,281.73
2018-12-15T10:06:33.594Z,282.14
2018-12-15T10:07:33.593Z,281.34
2018-12-15T10:08:33.594Z,281.70
2018-12-15T10:09:33.575Z,281.71
2018-12-15T10:10:33.590Z,281.93
2018-12-15T10:11:33.549Z,281.70
2018-12-15T10:12:33.540Z,282.35
2018-12-15T10:13:33.531Z,281.75
2018-12-15T10:14:33.538Z,282.06
2018-12-15T10:15:33.503Z,281.92
2018-12-15T10:16:33.504Z,282.05
2018-12-15T10:17:33.491Z,281.81
2018-12-15T10:18:33.478Z,281.75
2018-12-15T10:19:33.475Z,282.74
2018-12-15T10:20:33.465Z,281.78
2018-12-15T10:21:33.459Z,281.98
2018-12-15T10:22:33.482Z,281.57
2018-12-15T10:23:33.429Z,281.20
2018-12-15T10:24:33.442Z,281.89
2018-12-15T10:25:33.402Z,281.60
2018-12-15T10:26:33.398Z,281.88
2018-12-15T10:27:33.386Z,282.10
2018-12-15T10:28:33.375Z,282.34
2018-12-15T10:29:33.373Z,281.42
2018-12-15T10:30:33.354Z,281.01
2018-12-15T10:31:33.364Z,282.00
2018-12-15T10:32:33.338Z,281.71
2018-12-15T10:33:33.315Z,281.73
2018-12-15T10:34:33.315Z,280.84
2018-12-15T10:35:33.313Z,281.91
2018-12-15T10:36:33.313Z,282.25
2018-12-15T10:37:33.301Z,281.93
2018-12-15T10:38:33.283Z,281.60
2018-12-15T10:39:33.275Z,282.34
2018-12-15T10:40:33.282Z,281.56
2018-12-15T10:41:33.256Z,280.74
2018-12-15T10:42:33.239Z,281.99
2018-12-15T10:43:33.237Z,281.83
2018-12-15T10:44:33.220Z,282.04
2018-12-15T10:45:33.196Z,281.37
2018-12-15T10:46:33.197Z,282.00
2018-12-15T10:47:33.168Z,281.65
2018-12-15T10:48:33.295Z,281.61
2018-12-15T10:49:33.165Z,281.37
2018-12-15T10:50:33.193Z,281.45
2018-12-15T10:51:33.134Z,282.37
2018-12-15T10:52:33.137Z,281.80
2018-12-15T10:53:33.108Z,281.60
2018-12-15T10:54:33.104Z,281.63
2018-12-15T10:55:33.090Z,281.02
2018-12-15T10:56:33.077Z,281.79
2018-12-15T10:57:33.075Z,281.77
2018-12-15T10:58:33.074Z,281.45
2018-12-15T10:59:33.058Z,281.34
2018-12-15T11:00:33.060Z,282.42
2018-12-15T11:01:33.016Z,281.99
2018-12-15T11:02:33.072Z,282.10
2018-12-15T11:03:33.050Z,281.51
2018-12-15T11:04:33.001Z,282.38
2018-12-15T11:05:32.980Z,281.07
2018-12-15T11:06:32.983Z,281.75
2018-12-15T11:07:34.286Z,282.35
2018-12-15T11:08:32.963Z,282.42
2018-12-15T11:09:32.946Z,279.19
2018-12-15T11:10:32.943Z,283.61
2018-12-15T11:11:32.921Z,281.56
2018-12-15T11:12:32.936Z,281.35
2018-12-15T11:13:32.894Z,281.87
2018-12-15T11:14:32.890Z,282.34
2018-12-15T11:15:32.871Z,282.12
2018-12-15T11:16:32.858Z,281.74
2018-12-15T11:17:32.859Z,281.54
2018-12-15T11:18:32.859Z,281.60
2018-12-15T11:19:37.141Z,281.75
2018-12-15T11:20:32.812Z,282.23
2018-12-15T11:21:32.815Z,281.10
2018-12-15T11:22:34.040Z,282.90
2018-12-15T11:23:32.796Z,282.01
2018-12-15T11:24:32.789Z,282.11
2018-12-15T11:25:32.771Z,282.03
2018-12-15T11:26:32.766Z,282.06
2018-12-15T11:27:32.749Z,282.34
2018-12-15T11:28:32.738Z,282.00
2018-12-15T11:29:32.726Z,282.28
2018-12-15T11:30:32.717Z,282.51
2018-12-15T11:31:32.765Z,282.66
2018-12-15T11:32:32.699Z,282.10
2018-12-15T11:33:32.689Z,281.74
2018-12-15T11:34:32.694Z,282.97
2018-12-15T11:35:32.687Z,282.37
2018-12-15T11:36:32.662Z,282.50
2018-12-15T11:37:32.663Z,282.04
2018-12-15T11:38:32.627Z,282.59
2018-12-15T11:39:32.631Z,282.88
2018-12-15T11:40:32.613Z,282.53
2018-12-15T11:41:32.601Z,282.48
2018-12-15T11:42:32.590Z,281.35
2018-12-15T11:43:32.585Z,282.69
2018-12-15T11:44:32.576Z,282.40
2018-12-15T11:45:32.572Z,282.63
2018-12-15T11:46:32.547Z,282.49
2018-12-15T11:47:32.535Z,282.06
2018-12-15T11:48:32.528Z,281.81
2018-12-15T11:49:32.930Z,282.20
2018-12-15T11:50:32.514Z,282.33
2018-12-15T11:51:32.492Z,282.29
2018-12-15T11:52:32.483Z,282.10
2018-12-15T11:53:32.475Z,282.64
2018-12-15T11:54:32.464Z,282.25
2018-12-15T11:55:32.459Z,282.46
2018-12-15T11:56:32.441Z,282.20
2018-12-15T11:57:32.430Z,282.18
2018-12-15T11:58:32.476Z,282.18
2018-12-15T11:59:32.415Z,282.24
2018-12-15T12:00:32.402Z,281.68
2018-12-15T12:01:32.381Z,282.62
2018-12-15T12:02:32.385Z,281.90
2018-12-15T12:03:32.467Z,282.15
2018-12-15T12:04:32.391Z,282.62
2018-12-15T12:05:32.345Z,282.42
2018-12-15T12:06:32.344Z,283.11
2018-12-15T12:07:32.327Z,282.28
2018-12-15T12:08:32.318Z,281.96
2018-12-15T12:09:32.306Z,281.31
2018-12-15T12:10:32.302Z,282.45
2018-12-15T12:11:32.288Z,282.13
2018-12-15T12:12:32.502Z,281.97
2018-12-15T12:13:32.263Z,282.52
2018-12-15T12:14:32.250Z,281.64
2018-12-15T12:15:32.235Z,282.16
2018-12-15T12:16:32.239Z,282.45
2018-12-15T12:17:32.216Z,282.88
2018-12-15T12:18:32.220Z,282.11
2018-12-15T12:19:32.198Z,282.19
2018-12-15T12:20:32.187Z,282.40
2018-12-15T12:21:32.176Z,282.85
2018-12-15T12:22:32.198Z,282.58
2018-12-15T12:23:32.158Z,282.52
2018-12-15T12:24:32.166Z,282.72
2018-12-15T12:25:32.138Z,282.61
2018-12-15T12:26:32.160Z,282.78
2018-12-15T12:27:32.128Z,282.64
2018-12-15T12:28:32.108Z,281.90